createdAt,value
2018-03-23T00:00:37.041Z,99716.53
2018-03-23T00:03:04.494Z,99712.48
2018-03-23T00:05:31.948Z,99707.49
2018-03-23T00:07:59.427Z,99714.86
2018-03-23T00:10:26.996Z,99711.55
2018-03-23T00:12:54.488Z,99709.36
2018-03-23T00:15:21.937Z,99718.27
2018-03-23T00:20:41.837Z,99721.05
2018-03-23T00:23:09.307Z,99723.95
2018-03-23T00:25:36.778Z,99723.55
2018-03-23T00:28:04.769Z,99717.27
2018-03-23T00:30:32.227Z,99724.11
2018-03-23T00:32:59.759Z,99728.05
2018-03-23T00:35:27.247Z,99725.70
2018-03-23T00:37:54.763Z,99722.67
2018-03-23T00:40:22.280Z,99722.54
2018-03-23T00:42:49.750Z,99725.17
2018-03-23T00:45:17.233Z,99725.80
2018-03-23T00:47:44.757Z,99719.81
2018-03-23T00:50:12.209Z,99722.37
2018-03-23T00:52:39.671Z,99712.14
2018-03-23T00:55:07.158Z,99709.80
2018-03-23T00:57:34.646Z,99709.87
2018-03-23T01:00:02.156Z,99718.02
2018-03-23T01:02:29.633Z,99711.69
2018-03-23T01:04:57.162Z,99709.19
2018-03-23T01:07:24.617Z,99706.94
2018-03-23T01:09:52.072Z,99700.25
2018-03-23T01:12:19.569Z,99695.75
2018-03-23T01:14:47.023Z,99701.26
2018-03-23T01:17:14.547Z,99695.70
2018-03-23T01:19:41.990Z,99695.80
2018-03-23T01:22:16.007Z,99693.84
2018-03-23T01:24:43.516Z,99696.94
2018-03-23T01:27:10.986Z,99698.84
2018-03-23T01:29:38.454Z,99693.16
2018-03-23T01:32:05.924Z,99695.02
2018-03-23T01:34:33.387Z,99692.66
2018-03-23T01:37:00.903Z,99697.63
2018-03-23T01:39:33.315Z,99700.50
2018-03-23T01:42:00.823Z,99695.09
2018-03-23T01:44:28.280Z,99698.48
2018-03-23T01:46:55.770Z,99691.64
2018-03-23T01:49:23.310Z,99689.80
2018-03-23T01:51:50.790Z,99691.61
2018-03-23T01:54:18.286Z,99689.27
2018-03-23T01:56:45.761Z,99681.82
2018-03-23T01:59:13.226Z,99684.52
2018-03-23T02:01:40.738Z,99680.03
2018-03-23T02:04:08.196Z,99683.56
2018-03-23T02:06:35.648Z,99682.13
2018-03-23T02:09:03.165Z,99678.01
2018-03-23T02:11:30.631Z,99680.20
2018-03-23T02:13:58.086Z,99680.36
2018-03-23T02:16:25.688Z,99676.83
2018-03-23T02:18:53.146Z,99677.75
2018-03-23T02:21:20.600Z,99674.45
2018-03-23T02:23:48.088Z,99671.95
2018-03-23T02:26:15.532Z,99668.31
2018-03-23T02:28:42.992Z,99668.63
2018-03-23T02:31:10.495Z,99664.50
2018-03-23T02:33:37.995Z,99664.76
2018-03-23T02:36:05.453Z,99658.17
2018-03-23T02:38:33.003Z,99661.98
2018-03-23T02:41:00.445Z,99662.61
2018-03-23T02:43:27.923Z,99656.33
2018-03-23T02:45:55.431Z,99659.88
2018-03-23T02:48:22.890Z,99653.88
2018-03-23T02:50:50.409Z,99659.16
2018-03-23T02:53:17.851Z,99656.40
2018-03-23T02:55:45.328Z,99652.81
2018-03-23T02:58:12.785Z,99640.45
2018-03-23T03:00:40.225Z,99644.94
2018-03-23T03:03:07.699Z,99645.19
2018-03-23T03:05:35.163Z,99647.28
2018-03-23T03:08:02.648Z,99653.59
2018-03-23T03:10:30.146Z,99638.09
2018-03-23T03:12:57.588Z,99641.38
2018-03-23T03:15:25.104Z,99634.81
2018-03-23T03:17:52.628Z,99639.69
2018-03-23T03:20:20.080Z,99640.21
2018-03-23T03:22:47.543Z,99639.73
2018-03-23T03:25:15.024Z,99641.70
2018-03-23T03:27:42.480Z,99638.08
2018-03-23T03:30:09.953Z,99637.66
2018-03-23T03:32:37.420Z,99635.80
2018-03-23T03:35:04.880Z,99635.23
2018-03-23T03:37:32.350Z,99632.42
2018-03-23T03:39:59.836Z,99627.17
2018-03-23T03:42:28.272Z,99625.92
2018-03-23T03:44:55.706Z,99630.56
2018-03-23T03:47:23.180Z,99627.64
2018-03-23T03:49:50.694Z,99628.97
2018-03-23T03:52:18.186Z,99629.23
2018-03-23T03:54:45.666Z,99619.98
2018-03-23T03:57:13.150Z,99623.34
2018-03-23T03:59:40.646Z,99617.94
2018-03-23T04:02:08.392Z,99616.50
2018-03-23T04:04:37.381Z,99628.17
2018-03-23T04:07:04.836Z,99628.83
2018-03-23T04:09:32.326Z,99627.52
2018-03-23T04:11:59.778Z,99625.19
2018-03-23T04:14:27.243Z,99622.84
2018-03-23T04:16:55.928Z,99619.37
2018-03-23T04:19:23.452Z,99624.28
2018-03-23T04:21:50.912Z,99625.98
2018-03-23T04:24:18.366Z,99622.64
2018-03-23T04:26:45.860Z,99620.77
2018-03-23T04:29:13.360Z,99621.41
2018-03-23T04:31:40.804Z,99614.69
2018-03-23T04:34:08.336Z,99612.61
2018-03-23T04:36:35.824Z,99614.42
2018-03-23T04:39:03.450Z,99607.69
2018-03-23T04:41:30.911Z,99609.41
2018-03-23T04:43:58.389Z,99602.99
2018-03-23T04:46:25.867Z,99600.80
2018-03-23T04:48:53.351Z,99599.33
2018-03-23T04:51:20.914Z,99599.31
2018-03-23T04:53:48.376Z,99599.44
2018-03-23T04:56:16.682Z,99599.05
2018-03-23T04:58:44.144Z,99591.47
2018-03-23T05:01:11.602Z,99587.93
2018-03-23T05:03:39.083Z,99591.07
2018-03-23T05:06:06.602Z,99591.98
2018-03-23T05:08:34.148Z,99600.41
2018-03-23T05:11:01.637Z,99599.59
2018-03-23T05:13:29.082Z,99593.72
2018-03-23T05:15:56.584Z,99596.23
2018-03-23T05:18:24.311Z,99595.05
2018-03-23T05:20:51.833Z,99593.18
2018-03-23T05:23:19.295Z,99595.34
2018-03-23T05:25:47.576Z,99596.02
2018-03-23T05:28:15.053Z,99589.56
2018-03-23T05:30:43.102Z,99592.77
2018-03-23T05:33:10.592Z,99597.09
2018-03-23T05:35:38.116Z,99599.33
2018-03-23T05:38:05.628Z,99596.27
2018-03-23T05:40:33.160Z,99591.68
2018-03-23T05:43:00.612Z,99589.45
2018-03-23T05:45:28.182Z,99589.05
2018-03-23T05:47:55.656Z,99596.02
2018-03-23T05:50:24.246Z,99596.83
2018-03-23T05:52:51.963Z,99592.46
2018-03-23T05:55:19.566Z,99597.67
2018-03-23T05:57:47.097Z,99593.16
2018-03-23T06:00:14.566Z,99597.36
2018-03-23T06:02:42.120Z,99594.08
2018-03-23T06:05:09.755Z,99596.84
2018-03-23T06:07:37.232Z,99602.18
2018-03-23T06:10:04.771Z,99597.59
2018-03-23T06:12:32.337Z,99596.84
2018-03-23T06:14:59.810Z,99595.85
2018-03-23T06:17:27.352Z,99602.82
2018-03-23T06:19:54.820Z,99602.59
2018-03-23T06:22:22.377Z,99608.52
2018-03-23T06:24:49.909Z,99606.22
2018-03-23T06:27:17.485Z,99606.45
2018-03-23T06:29:44.978Z,99605.53
2018-03-23T06:32:12.449Z,99611.78
2018-03-23T06:34:39.900Z,99606.55
2018-03-23T06:37:07.422Z,99612.69
2018-03-23T06:39:35.219Z,99614.52
2018-03-23T06:42:02.721Z,99613.92
2018-03-23T06:44:30.175Z,99616.64
2018-03-23T06:46:57.679Z,99616.81
2018-03-23T06:49:25.203Z,99618.63
2018-03-23T06:51:53.421Z,99609.90
2018-03-23T06:54:20.898Z,99616.95
2018-03-23T06:56:48.431Z,99616.69
2018-03-23T06:59:15.875Z,99617.77
2018-03-23T07:01:43.347Z,99613.00
2018-03-23T07:04:10.827Z,99615.62
2018-03-23T07:06:39.309Z,99613.56
2018-03-23T07:09:11.961Z,99619.92
2018-03-23T07:11:39.458Z,99619.15
2018-03-23T07:14:06.949Z,99619.78
2018-03-23T07:16:34.491Z,99622.15
2018-03-23T07:19:02.009Z,99631.01
2018-03-23T07:21:29.467Z,99624.20
2018-03-23T07:23:57.008Z,99620.12
2018-03-23T07:26:24.454Z,99618.63
2018-03-23T07:28:51.943Z,99621.27
2018-03-23T07:31:19.448Z,99616.14
2018-03-23T07:33:47.001Z,99618.80
2018-03-23T07:36:14.527Z,99619.20
2018-03-23T07:38:41.981Z,99620.93
2018-03-23T07:41:09.485Z,99628.98
2018-03-23T07:43:36.981Z,99624.69
2018-03-23T07:46:04.531Z,99631.52
2018-03-23T07:48:32.018Z,99627.69
2018-03-23T07:50:59.527Z,99629.00
2018-03-23T07:53:27.085Z,99625.61
2018-03-23T07:55:54.606Z,99630.19
2018-03-23T07:58:22.126Z,99631.50
2018-03-23T08:00:49.595Z,99631.50
2018-03-23T08:03:17.126Z,99634.42
2018-03-23T08:05:44.608Z,99618.02
2018-03-23T08:08:12.133Z,99617.11
2018-03-23T08:10:39.628Z,99624.50
2018-03-23T08:13:07.144Z,99621.22
2018-03-23T08:15:34.595Z,99627.05
2018-03-23T08:18:02.157Z,99621.40
2018-03-23T08:20:29.616Z,99620.87
2018-03-23T08:22:57.181Z,99628.78
2018-03-23T08:25:24.629Z,99624.73
2018-03-23T08:27:52.175Z,99621.63
2018-03-23T08:30:19.712Z,99623.34
2018-03-23T08:32:47.251Z,99617.72
2018-03-23T08:35:14.742Z,99621.53
2018-03-23T08:37:42.521Z,99621.55
2018-03-23T08:40:09.997Z,99625.50
2018-03-23T08:42:37.608Z,99623.53
2018-03-23T08:45:05.129Z,99613.95
2018-03-23T08:47:32.647Z,99609.27
2018-03-23T08:50:00.125Z,99612.33
2018-03-23T08:52:27.623Z,99604.08
2018-03-23T08:54:55.089Z,99599.63
2018-03-23T08:57:22.604Z,99603.59
2018-03-23T08:59:50.113Z,99603.47
2018-03-23T09:02:17.584Z,99597.16
2018-03-23T09:04:45.045Z,99600.59
2018-03-23T09:07:12.530Z,99600.70
2018-03-23T09:09:40.045Z,99592.92
2018-03-23T09:12:07.517Z,99593.47
2018-03-23T09:14:35.009Z,99591.62
2018-03-23T09:17:02.674Z,99590.97
2018-03-23T09:19:30.197Z,99592.70
2018-03-23T09:21:57.752Z,99588.64
2018-03-23T09:24:25.234Z,99586.15
2018-03-23T09:26:52.808Z,99585.88
2018-03-23T09:29:20.299Z,99584.17
2018-03-23T09:31:47.777Z,99580.77
2018-03-23T09:34:15.254Z,99579.81
2018-03-23T09:36:42.752Z,99574.82
2018-03-23T09:39:19.923Z,99572.19
2018-03-23T09:41:47.483Z,99569.83
2018-03-23T09:44:15.063Z,99567.20
2018-03-23T09:46:42.601Z,99562.35
2018-03-23T09:49:10.155Z,99564.86
2018-03-23T09:51:37.643Z,99564.76
2018-03-23T09:54:05.243Z,99570.80
2018-03-23T09:56:32.739Z,99568.17
2018-03-23T09:59:00.347Z,99566.31
2018-03-23T10:01:27.859Z,99566.08
2018-03-23T10:03:55.579Z,99560.81
2018-03-23T10:06:22.993Z,99561.31
2018-03-23T10:08:50.504Z,99558.17
2018-03-23T10:11:17.964Z,99560.41
2018-03-23T10:13:45.607Z,99560.41
2018-03-23T10:16:13.140Z,99547.23
2018-03-23T10:18:40.670Z,99532.33
2018-03-23T10:21:08.235Z,99537.23
2018-03-23T10:23:35.744Z,99541.10
2018-03-23T10:26:03.350Z,99536.83
2018-03-23T10:28:30.836Z,99545.29
2018-03-23T10:30:58.340Z,99531.80
2018-03-23T10:33:25.815Z,99531.96
2018-03-23T10:35:53.623Z,99536.02
2018-03-23T10:38:21.174Z,99533.95
2018-03-23T10:40:48.668Z,99534.21
2018-03-23T10:43:16.203Z,99527.19
2018-03-23T10:45:43.796Z,99521.34
2018-03-23T10:48:11.489Z,99522.45
2018-03-23T10:50:39.017Z,99516.71
2018-03-23T10:53:06.469Z,99520.64
2018-03-23T10:55:34.035Z,99516.21
2018-03-23T10:58:06.362Z,99512.39
2018-03-23T11:00:39.498Z,99520.36
2018-03-23T11:03:06.975Z,99516.36
2018-03-23T11:05:34.456Z,99518.36
2018-03-23T11:08:01.961Z,99525.54
2018-03-23T11:10:29.608Z,99521.66
2018-03-23T11:12:57.136Z,99523.95
2018-03-23T11:15:24.624Z,99519.94
2018-03-23T11:17:52.143Z,99516.05
2018-03-23T11:20:19.580Z,99508.08
2018-03-23T11:22:47.078Z,99506.64
2018-03-23T11:25:14.636Z,99512.48
2018-03-23T11:27:42.125Z,99509.86
2018-03-23T11:30:09.904Z,99509.11
2018-03-23T11:32:37.392Z,99501.39
2018-03-23T11:35:04.943Z,99501.20
2018-03-23T11:37:32.414Z,99497.12
2018-03-23T11:39:59.890Z,99504.27
2018-03-23T11:42:27.716Z,99502.84
2018-03-23T11:44:55.198Z,99500.13
2018-03-23T11:47:22.810Z,99505.37
2018-03-23T11:49:50.316Z,99503.27
2018-03-23T11:52:17.789Z,99497.92
2018-03-23T11:54:45.663Z,99501.23
2018-03-23T11:57:13.173Z,99499.33
2018-03-23T11:59:40.635Z,99499.48
2018-03-23T12:02:08.084Z,99493.05
2018-03-23T12:04:35.576Z,99499.02
2018-03-23T12:07:03.422Z,99495.81
2018-03-23T12:09:30.876Z,99490.54
2018-03-23T12:11:58.386Z,99485.52
2018-03-23T12:14:25.973Z,99486.41
2018-03-23T12:16:53.400Z,99483.22
2018-03-23T12:19:30.484Z,99488.50
2018-03-23T12:21:58.023Z,99490.16
2018-03-23T12:24:25.489Z,99488.38
2018-03-23T12:26:53.012Z,99475.30
2018-03-23T12:29:20.484Z,99470.97
2018-03-23T12:31:47.980Z,99476.34
2018-03-23T12:34:15.493Z,99471.19
2018-03-23T12:36:43.052Z,99467.95
2018-03-23T12:39:10.557Z,99466.59
2018-03-23T12:41:38.650Z,99465.32
2018-03-23T12:44:06.149Z,99456.88
2018-03-23T12:46:33.612Z,99456.24
2018-03-23T12:49:01.106Z,99451.91
2018-03-23T12:51:28.550Z,99439.34
2018-03-23T12:53:56.019Z,99441.15
2018-03-23T12:56:23.540Z,99430.20
2018-03-23T12:58:51.026Z,99438.31
2018-03-23T13:01:18.562Z,99428.48
2018-03-23T13:03:46.114Z,99417.55
2018-03-23T13:06:13.557Z,99416.79
2018-03-23T13:08:41.043Z,99407.06
2018-03-23T13:11:08.529Z,99399.36
2018-03-23T13:13:35.992Z,99399.90
2018-03-23T13:16:03.543Z,99398.02
2018-03-23T13:18:31.832Z,99396.77
2018-03-23T13:20:59.315Z,99396.12
2018-03-23T13:23:26.798Z,99393.45
2018-03-23T13:25:54.290Z,99395.12
2018-03-23T13:28:21.816Z,99390.36
2018-03-23T13:30:49.283Z,99382.47
2018-03-23T13:33:16.763Z,99381.77
2018-03-23T13:35:44.249Z,99383.39
2018-03-23T13:38:16.668Z,99383.81
2018-03-23T13:40:44.139Z,99388.70
2018-03-23T13:43:11.612Z,99386.67
2018-03-23T13:45:40.152Z,99380.05
2018-03-23T13:48:09.028Z,99377.67
2018-03-23T13:50:36.492Z,99371.16
2018-03-23T13:53:04.658Z,99375.02
2018-03-23T13:55:32.502Z,99367.36
2018-03-23T13:57:59.986Z,99361.39
2018-03-23T14:00:33.736Z,99358.69
2018-03-23T14:03:01.244Z,99352.98
2018-03-23T14:05:29.223Z,99346.91
2018-03-23T14:07:57.010Z,99348.00
2018-03-23T14:10:24.618Z,99351.43
2018-03-23T14:12:52.992Z,99348.62
2018-03-23T14:15:20.474Z,99347.13
2018-03-23T14:17:48.264Z,99346.05
2018-03-23T14:20:15.852Z,99342.88
2018-03-23T14:22:43.347Z,99332.09
2018-03-23T14:25:10.841Z,99325.51
2018-03-23T14:27:38.425Z,99326.88
2018-03-23T14:30:06.296Z,99325.63
2018-03-23T14:32:34.710Z,99324.03
2018-03-23T14:35:02.310Z,99316.69
2018-03-23T14:37:29.905Z,99315.05
2018-03-23T14:40:16.774Z,99318.42
2018-03-23T14:42:44.269Z,99316.31
2018-03-23T14:45:11.781Z,99310.14
2018-03-23T14:47:39.241Z,99311.12
2018-03-23T14:50:07.120Z,99306.22
2018-03-23T14:52:34.719Z,99312.84
2018-03-23T14:55:02.277Z,99312.88
2018-03-23T14:57:29.747Z,99305.95
2018-03-23T14:59:57.309Z,99297.06
2018-03-23T15:02:24.906Z,99298.69
2018-03-23T15:04:53.242Z,99295.66
2018-03-23T15:07:20.839Z,99293.92
2018-03-23T15:09:49.264Z,99285.36
2018-03-23T15:12:16.772Z,99288.58
2018-03-23T15:14:44.291Z,99290.73
2018-03-23T15:17:11.873Z,99298.98
2018-03-23T15:19:39.424Z,99297.61
2018-03-23T15:22:07.693Z,99301.53
2018-03-23T15:24:35.574Z,99291.84
2018-03-23T15:27:03.122Z,99290.61
2018-03-23T15:29:30.572Z,99292.80
2018-03-23T15:31:58.222Z,99298.92
2018-03-23T15:34:25.778Z,99293.52
2018-03-23T15:36:53.264Z,99294.86
2018-03-23T15:39:20.762Z,99290.64
2018-03-23T15:41:48.257Z,99289.62
2018-03-23T15:44:15.803Z,99289.77
2018-03-23T15:46:43.321Z,99285.84
2018-03-23T15:49:10.843Z,99284.30
2018-03-23T15:51:38.423Z,99285.63
2018-03-23T15:54:05.935Z,99278.67
2018-03-23T15:56:33.468Z,99279.95
2018-03-23T15:59:00.975Z,99279.67
2018-03-23T16:01:28.507Z,99277.55
2018-03-23T16:03:56.051Z,99275.31
2018-03-23T16:06:23.503Z,99268.63
2018-03-23T16:08:51.026Z,99275.66
2018-03-23T16:11:18.559Z,99277.23
2018-03-23T16:13:46.023Z,99280.33
2018-03-23T16:16:13.547Z,99281.31
2018-03-23T16:18:41.053Z,99280.17
2018-03-23T16:21:08.598Z,99283.08
2018-03-23T16:23:36.084Z,99287.27
2018-03-23T16:26:03.591Z,99280.14
2018-03-23T16:28:31.037Z,99286.82
2018-03-23T16:30:58.499Z,99281.83
2018-03-23T16:33:25.999Z,99284.14
2018-03-23T16:35:53.531Z,99289.46
2018-03-23T16:38:26.055Z,99287.33
2018-03-23T16:40:53.531Z,99285.90
2018-03-23T16:43:21.015Z,99284.87
2018-03-23T16:45:48.525Z,99282.37
2018-03-23T16:48:16.017Z,99282.96
2018-03-23T16:50:43.545Z,99281.53
2018-03-23T16:53:11.123Z,99288.84
2018-03-23T16:55:38.609Z,99285.89
2018-03-23T16:58:06.159Z,99286.15
2018-03-23T17:00:33.727Z,99280.16
2018-03-23T17:03:01.231Z,99289.73
2018-03-23T17:05:28.738Z,99290.64
2018-03-23T17:07:56.225Z,99299.41
2018-03-23T17:10:23.673Z,99294.02
2018-03-23T17:12:51.291Z,99294.96
2018-03-23T17:15:18.787Z,99301.57
2018-03-23T17:17:46.246Z,99296.03
2018-03-23T17:20:13.813Z,99296.98
2018-03-23T17:22:41.390Z,99303.21
2018-03-23T17:25:08.885Z,99305.22
2018-03-23T17:27:36.469Z,99304.70
2018-03-23T17:30:04.179Z,99299.83
2018-03-23T17:32:31.803Z,99308.22
2018-03-23T17:34:59.296Z,99301.44
2018-03-23T17:37:26.742Z,99302.16
2018-03-23T17:39:54.260Z,99298.63
2018-03-23T17:42:21.840Z,99299.14
2018-03-23T17:44:49.317Z,99304.13
2018-03-23T17:47:16.849Z,99303.47
2018-03-23T17:49:44.329Z,99298.62
2018-03-23T17:52:12.253Z,99293.05
2018-03-23T17:54:39.797Z,99298.48
2018-03-23T17:57:07.364Z,99292.53
2018-03-23T17:59:34.897Z,99300.89
2018-03-23T18:02:02.404Z,99294.45
2018-03-23T18:04:29.839Z,99299.77
2018-03-23T18:06:57.648Z,99296.11
2018-03-23T18:09:25.231Z,99300.09
2018-03-23T18:11:52.776Z,99297.75
2018-03-23T18:14:20.287Z,99297.20
2018-03-23T18:16:47.954Z,99303.34
2018-03-23T18:19:15.476Z,99297.84
2018-03-23T18:21:42.993Z,99302.84
2018-03-23T18:24:10.475Z,99304.84
2018-03-23T18:26:38.009Z,99312.11
2018-03-23T18:29:05.472Z,99316.06
2018-03-23T18:31:33.095Z,99315.94
2018-03-23T18:34:00.659Z,99317.63
2018-03-23T18:36:28.277Z,99320.82
2018-03-23T18:38:55.751Z,99317.97
2018-03-23T18:41:23.323Z,99315.19
2018-03-23T18:43:50.862Z,99324.34
2018-03-23T18:46:18.436Z,99321.59
2018-03-23T18:48:45.884Z,99323.46
2018-03-23T18:51:13.349Z,99331.16
2018-03-23T18:53:40.865Z,99333.26
2018-03-23T18:56:08.377Z,99324.02
2018-03-23T18:58:35.979Z,99326.17
2018-03-23T19:01:03.501Z,99322.30
2018-03-23T19:03:30.982Z,99319.94
2018-03-23T19:05:58.544Z,99317.47
2018-03-23T19:08:45.345Z,99320.67
2018-03-23T19:11:13.009Z,99322.13
2018-03-23T19:13:40.476Z,99322.16
2018-03-23T19:16:08.007Z,99319.84
2018-03-23T19:18:35.568Z,99318.69
2018-03-23T19:21:03.098Z,99319.17
2018-03-23T19:23:30.627Z,99318.78
2018-03-23T19:25:58.101Z,99321.70
2018-03-23T19:28:25.578Z,99319.59
2018-03-23T19:30:53.101Z,99319.59
2018-03-23T19:33:20.560Z,99322.60
2018-03-23T19:35:48.029Z,99324.73
2018-03-23T19:38:15.498Z,99320.48
2018-03-23T19:40:43.073Z,99324.20
2018-03-23T19:43:10.531Z,99320.63
2018-03-23T19:45:38.067Z,99319.97
2018-03-23T19:48:05.565Z,99316.01
2018-03-23T19:50:33.048Z,99316.03
2018-03-23T19:53:00.530Z,99311.55
2018-03-23T19:55:28.118Z,99316.15
2018-03-23T19:57:55.615Z,99316.39
2018-03-23T20:00:23.159Z,99309.02
2018-03-23T20:02:51.676Z,99315.05
2018-03-23T20:05:19.203Z,99314.44
2018-03-23T20:07:46.676Z,99314.58
2018-03-23T20:10:14.275Z,99312.86
2018-03-23T20:12:41.839Z,99316.95
2018-03-23T20:15:10.202Z,99312.86
2018-03-23T20:17:43.407Z,99314.98
2018-03-23T20:20:16.569Z,99325.95
2018-03-23T20:22:44.100Z,99324.95
2018-03-23T20:25:11.585Z,99319.41
2018-03-23T20:27:44.852Z,99323.09
2018-03-23T20:30:12.370Z,99320.32
2018-03-23T20:32:39.867Z,99321.01
2018-03-23T20:35:07.392Z,99322.31
2018-03-23T20:37:34.923Z,99317.70
2018-03-23T20:40:02.425Z,99321.70
2018-03-23T20:42:29.907Z,99312.32
2018-03-23T20:44:57.392Z,99316.42
2018-03-23T20:47:24.981Z,99308.51
2018-03-23T20:50:06.751Z,99313.94
2018-03-23T20:52:34.257Z,99312.56
2018-03-23T20:55:01.765Z,99309.44
2018-03-23T20:57:29.222Z,99310.62
2018-03-23T20:59:56.756Z,99315.16
2018-03-23T21:02:24.243Z,99310.53
2018-03-23T21:04:51.942Z,99307.90
2018-03-23T21:07:19.418Z,99308.70
2018-03-23T21:09:47.014Z,99301.56
2018-03-23T21:12:14.482Z,99306.39
2018-03-23T21:14:41.998Z,99307.23
2018-03-23T21:17:09.450Z,99305.27
2018-03-23T21:22:30.146Z,99305.27
2018-03-23T21:24:57.668Z,99307.00
2018-03-23T21:27:25.461Z,99295.96
2018-03-23T21:29:53.028Z,99291.99
2018-03-23T21:32:20.604Z,99295.31
2018-03-23T21:34:48.092Z,99293.86
2018-03-23T21:37:15.658Z,99295.30
2018-03-23T21:39:43.127Z,99288.47
2018-03-23T21:42:11.077Z,99281.47
2018-03-23T21:44:38.922Z,99277.14
2018-03-23T21:47:07.332Z,99275.47
2018-03-23T21:49:34.889Z,99281.53
2018-03-23T21:52:02.451Z,99272.42
2018-03-23T21:54:29.960Z,99281.39
2018-03-23T21:56:57.452Z,99278.19
2018-03-23T21:59:24.982Z,99282.28
2018-03-23T22:01:52.460Z,99274.38
2018-03-23T22:04:19.962Z,99279.75
2018-03-23T22:06:47.472Z,99281.62
2018-03-23T22:09:15.111Z,99272.82
2018-03-23T22:11:42.676Z,99275.88
2018-03-23T22:14:10.173Z,99276.19
2018-03-23T22:16:37.668Z,99275.84
2018-03-23T22:19:19.430Z,99275.73
2018-03-23T22:21:46.913Z,99276.19
2018-03-23T22:24:14.427Z,99277.70
2018-03-23T22:26:41.962Z,99270.19
2018-03-23T22:29:14.396Z,99271.38
2018-03-23T22:31:41.852Z,99269.17
2018-03-23T22:34:09.422Z,99266.53
2018-03-23T22:36:36.900Z,99269.47
2018-03-23T22:39:04.426Z,99274.22
2018-03-23T22:41:31.945Z,99274.61
2018-03-23T22:43:59.762Z,99266.69
2018-03-23T22:46:27.268Z,99266.53
2018-03-23T22:48:54.844Z,99267.49
2018-03-23T22:51:22.284Z,99263.28
2018-03-23T22:53:49.888Z,99268.83
2018-03-23T22:56:17.374Z,99268.25
2018-03-23T22:58:44.895Z,99267.08
2018-03-23T23:01:12.348Z,99263.96
2018-03-23T23:03:39.993Z,99254.34
2018-03-23T23:06:07.482Z,99250.53
2018-03-23T23:08:34.994Z,99255.41
2018-03-23T23:11:02.450Z,99255.67
2018-03-23T23:13:29.911Z,99263.34
2018-03-23T23:15:57.364Z,99256.52
2018-03-23T23:18:24.870Z,99256.73
2018-03-23T23:20:52.641Z,99257.02
2018-03-23T23:23:21.425Z,99255.20
2018-03-23T23:25:49.006Z,99257.31
2018-03-23T23:28:16.490Z,99256.29
2018-03-23T23:30:43.978Z,99257.06
2018-03-23T23:33:11.456Z,99253.67
2018-03-23T23:35:38.984Z,99260.38
2018-03-23T23:38:06.566Z,99258.81
2018-03-23T23:40:34.096Z,99255.77
2018-03-23T23:43:01.578Z,99255.50
2018-03-23T23:45:30.082Z,99251.06
2018-03-23T23:47:57.632Z,99250.38
2018-03-23T23:50:25.076Z,99255.44
2018-03-23T23:52:52.560Z,99246.23
2018-03-23T23:55:20.093Z,99241.63
2018-03-23T23:57:47.552Z,99239.41
